Time;durP1;ratioP1;P1;durP2;ratioP2;P2;SDS_P1;SDS_P2;PMS_P1;PMS_P2;Temp;Humidity;BMP_temperature;BMP_pressure;BME280_temperature;BME280_humidity;BME280_pressure;Samples;Min_cycle;Max_cycle;Signal;HPM_P1;HPM_P2
2023/05/11 00:01:02;;;;;;;303.35;71.13;;;;;;;;;;4984882;28;20550;-56
2023/05/11 00:03:28;;;;;;;373.88;72.63;;;;;;;;;;5014318;28;20030;-55
2023/05/11 00:05:53;;;;;;;319.25;71.15;;;;;;;;;;4984030;28;20040;-55
2023/05/11 00:08:18;;;;;;;333.50;71.30;;;;;;;;;;4983817;28;20114;-55
2023/05/11 00:10:47;;;;;;;308.65;70.07;;;;;;;;;;4982243;28;20254;-57
2023/05/11 00:13:12;;;;;;;304.67;68.78;;;;;;;;;;4985641;28;20074;-56
2023/05/11 00:15:37;;;;;;;352.08;70.63;;;;;;;;;;4982913;28;20094;-56
2023/05/11 00:18:03;;;;;;;282.90;69.47;;;;;;;;;;4983800;28;20705;-58
2023/05/11 00:20:28;;;;;;;329.97;71.13;;;;;;;;;;4983259;28;20715;-57
2023/05/11 00:22:53;;;;;;;378.13;72.90;;;;;;;;;;4983033;28;20289;-55
2023/05/11 00:25:18;;;;;;;306.77;69.73;;;;;;;;;;4982591;28;20442;-57
2023/05/11 00:27:44;;;;;;;332.75;69.82;;;;;;;;;;4982062;28;20285;-55
2023/05/11 00:30:10;;;;;;;297.88;67.75;;;;;;;;;;4983599;28;20615;-57
2023/05/11 00:32:35;;;;;;;303.00;70.18;;;;;;;;;;4983907;28;20452;-56
2023/05/11 00:35:00;;;;;;;339.45;71.82;;;;;;;;;;4983613;28;20054;-57
2023/05/11 00:37:26;;;;;;;350.70;72.53;;;;;;;;;;4982743;28;20599;-55
2023/05/11 00:39:51;;;;;;;338.88;71.65;;;;;;;;;;4984488;28;20038;-55
2023/05/11 00:42:16;;;;;;;372.37;72.30;;;;;;;;;;4983696;28;20042;-56
2023/05/11 00:44:42;;;;;;;329.50;72.00;;;;;;;;;;4983529;28;20258;-56
2023/05/11 00:47:07;;;;;;;282.33;70.00;;;;;;;;;;4984639;28;20313;-56
2023/05/11 00:49:32;;;;;;;329.60;71.07;;;;;;;;;;4983016;28;20030;-56
2023/05/11 00:52:01;;;;;;;332.48;72.00;;;;;;;;;;4982848;28;20461;-58
2023/05/11 00:54:27;;;;;;;352.45;72.22;;;;;;;;;;4983881;28;20034;-58
2023/05/11 00:56:52;;;;;;;308.40;71.07;;;;;;;;;;4985695;28;20039;-55
2023/05/11 00:59:18;;;;;;;313.73;71.18;;;;;;;;;;4985254;28;20022;-56
2023/05/11 01:01:43;;;;;;;351.85;72.70;;;;;;;;;;4983704;28;20541;-57
2023/05/11 01:04:08;;;;;;;320.17;71.35;;;;;;;;;;4982304;28;20399;-57
2023/05/11 01:06:41;;;;;;;312.00;71.53;;;;;;;;;;4980537;28;20033;-56
2023/05/11 01:09:26;;;;;;;324.80;72.60;;;;;;;;;;4985083;28;20392;-58
2023/05/11 01:12:12;;;;;;;339.73;73.97;;;;;;;;;;4960743;28;20627;-56
2023/05/11 01:14:45;;;;;;;323.08;71.88;;;;;;;;;;4981945;28;20108;-56
2023/05/11 01:17:13;;;;;;;341.10;72.10;;;;;;;;;;4982884;28;20038;-58
2023/05/11 01:19:47;;;;;;;303.27;70.18;;;;;;;;;;4983050;28;20026;-58
2023/05/11 01:22:31;;;;;;;339.13;72.00;;;;;;;;;;4982269;28;20083;-58
2023/05/11 01:25:11;;;;;;;324.35;71.95;;;;;;;;;;4982363;28;20033;-57
2023/05/11 01:27:56;;;;;;;377.58;72.90;;;;;;;;;;4981723;28;20046;-55
2023/05/11 01:30:30;;;;;;;363.00;72.55;;;;;;;;;;4982253;28;20026;-55
2023/05/11 01:33:04;;;;;;;325.55;70.50;;;;;;;;;;4983731;28;20058;-57
2023/05/11 01:35:31;;;;;;;365.10;71.40;;;;;;;;;;4982111;28;20033;-57
2023/05/11 01:37:58;;;;;;;321.65;72.28;;;;;;;;;;4982770;28;20635;-56
2023/05/11 01:40:25;;;;;;;370.13;71.03;;;;;;;;;;4981736;28;20073;-57
2023/05/11 01:42:57;;;;;;;347.15;72.22;;;;;;;;;;4983442;28;20030;-58
2023/05/11 01:45:22;;;;;;;;;;;;;;;;;;4981630;28;20105;-57
2023/05/11 01:47:48;;;;;;;355.80;74.13;;;;;;;;;;4982087;28;19910;-56
2023/05/11 01:50:15;;;;;;;301.52;73.07;;;;;;;;;;4982079;28;20022;-56
2023/05/11 01:52:41;;;;;;;323.63;72.57;;;;;;;;;;4984774;28;20543;-57
2023/05/11 01:55:08;;;;;;;265.60;70.35;;;;;;;;;;4982445;28;20206;-58
2023/05/11 01:57:34;;;;;;;355.38;72.57;;;;;;;;;;4981456;28;20913;-57
2023/05/11 02:00:00;;;;;;;323.33;71.40;;;;;;;;;;4981345;28;20742;-57
2023/05/11 02:02:26;;;;;;;321.80;72.25;;;;;;;;;;4980449;28;20031;-56
2023/05/11 02:04:52;;;;;;;344.40;72.82;;;;;;;;;;4980795;28;20045;-57
2023/05/11 02:07:17;;;;;;;346.80;72.75;;;;;;;;;;4983657;28;20034;-55
2023/05/11 02:09:43;;;;;;;337.70;73.10;;;;;;;;;;4984423;28;20022;-56
2023/05/11 02:12:10;;;;;;;350.83;73.35;;;;;;;;;;4984498;28;20042;-56
2023/05/11 02:14:35;;;;;;;288.13;72.50;;;;;;;;;;4983925;28;20087;-55
2023/05/11 02:17:02;;;;;;;315.48;72.68;;;;;;;;;;4984681;28;20042;-57
2023/05/11 02:19:29;;;;;;;311.02;72.63;;;;;;;;;;4984747;28;20029;-58
2023/05/11 02:21:54;;;;;;;327.83;72.93;;;;;;;;;;4987521;28;20614;-56
2023/05/11 02:24:20;;;;;;;352.30;72.07;;;;;;;;;;4984595;28;20094;-56
2023/05/11 02:26:45;;;;;;;309.50;72.10;;;;;;;;;;4984132;28;20134;-57
2023/05/11 02:29:10;;;;;;;303.27;70.97;;;;;;;;;;4984162;28;20125;-56
2023/05/11 02:31:39;;;;;;;355.50;72.15;;;;;;;;;;4985046;28;20030;-56
2023/05/11 02:34:31;;;;;;;321.77;70.07;;;;;;;;;;4985757;28;20102;-55
2023/05/11 02:36:58;;;;;;;326.10;71.75;;;;;;;;;;4986535;28;20037;-55
2023/05/11 02:39:28;;;;;;;329.73;71.13;;;;;;;;;;5019023;28;20083;-58
2023/05/11 02:41:57;;;;;;;343.83;71.43;;;;;;;;;;4986133;28;20127;-57
2023/05/11 02:44:26;;;;;;;308.83;71.18;;;;;;;;;;4985995;28;20857;-58
2023/05/11 02:46:52;;;;;;;361.85;72.72;;;;;;;;;;4984819;28;20455;-55
2023/05/11 02:49:19;;;;;;;324.30;69.97;;;;;;;;;;4984306;28;20027;-57
2023/05/11 02:51:46;;;;;;;311.83;68.60;;;;;;;;;;4984780;28;20389;-56
2023/05/11 02:54:13;;;;;;;316.95;70.32;;;;;;;;;;4984031;28;20042;-56
2023/05/11 02:56:38;;;;;;;327.48;71.53;;;;;;;;;;4983809;28;20137;-56
2023/05/11 02:59:03;;;;;;;327.90;71.47;;;;;;;;;;4985503;28;20032;-55
2023/05/11 03:01:29;;;;;;;335.30;72.30;;;;;;;;;;4984322;28;20361;-55
2023/05/11 03:03:54;;;;;;;400.30;72.82;;;;;;;;;;4983689;28;20052;-58
2023/05/11 03:06:20;;;;;;;342.98;70.90;;;;;;;;;;4984665;28;20034;-56
2023/05/11 03:08:45;;;;;;;309.65;70.10;;;;;;;;;;4984490;28;20022;-57
2023/05/11 03:11:13;;;;;;;292.80;69.05;;;;;;;;;;4983582;28;20412;-58
2023/05/11 03:13:38;;;;;;;273.73;68.05;;;;;;;;;;4984053;28;20092;-56
2023/05/11 03:16:04;;;;;;;281.33;65.07;;;;;;;;;;4984896;28;20046;-56
2023/05/11 03:18:30;;;;;;;317.05;58.35;;;;;;;;;;4985775;28;20579;-57
2023/05/11 03:20:56;;;;;;;253.77;42.17;;;;;;;;;;4984932;28;20119;-55
2023/05/11 03:23:22;;;;;;;263.50;35.65;;;;;;;;;;4985248;28;20034;-55
2023/05/11 03:25:47;;;;;;;265.45;28.60;;;;;;;;;;5010913;28;20033;-55
2023/05/11 03:28:13;;;;;;;236.63;22.98;;;;;;;;;;4988984;28;20045;-57
2023/05/11 03:30:39;;;;;;;240.48;19.10;;;;;;;;;;4983075;28;20033;-57
2023/05/11 03:33:05;;;;;;;199.20;20.05;;;;;;;;;;4986132;28;20022;-56
2023/05/11 03:35:32;;;;;;;206.18;16.90;;;;;;;;;;4982493;28;20026;-57
2023/05/11 03:37:58;;;;;;;236.48;16.38;;;;;;;;;;4985126;28;20030;-57
2023/05/11 03:40:23;;;;;;;237.75;21.83;;;;;;;;;;4984248;28;20724;-56
2023/05/11 03:42:52;;;;;;;184.05;20.83;;;;;;;;;;4983952;28;20030;-56
2023/05/11 03:45:18;;;;;;;221.93;21.52;;;;;;;;;;4981712;28;20574;-56
2023/05/11 03:47:43;;;;;;;240.30;19.30;;;;;;;;;;4984559;28;20027;-58
2023/05/11 03:50:09;;;;;;;266.88;22.83;;;;;;;;;;4985421;28;20091;-56
2023/05/11 03:52:35;;;;;;;214.98;20.17;;;;;;;;;;4984507;28;20034;-58
2023/05/11 03:55:01;;;;;;;169.23;11.63;;;;;;;;;;4982330;28;20030;-57
2023/05/11 03:57:27;;;;;;;266.02;28.13;;;;;;;;;;4983704;28;20125;-56
2023/05/11 03:59:52;;;;;;;231.88;15.35;;;;;;;;;;4983804;28;20033;-58
2023/05/11 04:02:17;;;;;;;217.65;17.20;;;;;;;;;;4983911;28;20140;-57
2023/05/11 04:04:42;;;;;;;227.30;18.30;;;;;;;;;;4981753;28;20022;-58
2023/05/11 04:07:08;;;;;;;219.17;23.40;;;;;;;;;;4983886;28;20080;-58
2023/05/11 04:09:33;;;;;;;242.27;23.83;;;;;;;;;;4983723;28;20360;-56
2023/05/11 04:11:58;;;;;;;184.68;21.58;;;;;;;;;;4983874;28;20317;-56
2023/05/11 04:14:23;;;;;;;215.93;28.07;;;;;;;;;;4983144;28;20142;-56
2023/05/11 04:16:49;;;;;;;272.13;24.25;;;;;;;;;;4983843;28;20334;-57
2023/05/11 04:19:15;;;;;;;206.02;28.73;;;;;;;;;;4984066;28;20055;-58
2023/05/11 04:21:40;;;;;;;228.10;22.52;;;;;;;;;;4983724;28;20042;-58
2023/05/11 04:24:06;;;;;;;233.75;27.33;;;;;;;;;;4982146;28;20103;-58
2023/05/11 04:26:31;;;;;;;185.32;25.65;;;;;;;;;;4984551;28;20303;-56
2023/05/11 04:28:56;;;;;;;240.65;24.48;;;;;;;;;;4981540;28;20018;-58
2023/05/11 04:31:21;;;;;;;201.60;24.38;;;;;;;;;;4984304;28;20117;-60
2023/05/11 04:33:47;;;;;;;284.03;26.27;;;;;;;;;;4982172;28;20023;-57
2023/05/11 04:36:12;;;;;;;257.95;20.55;;;;;;;;;;4982844;28;20330;-56
2023/05/11 04:38:37;;;;;;;205.23;20.47;;;;;;;;;;4984992;28;20017;-56
2023/05/11 04:41:07;;;;;;;225.07;20.42;;;;;;;;;;4983557;28;20273;-56
2023/05/11 04:43:32;;;;;;;212.23;18.55;;;;;;;;;;4984158;28;20114;-56
2023/05/11 04:45:58;;;;;;;230.85;17.98;;;;;;;;;;4980974;28;20129;-56
2023/05/11 04:48:23;;;;;;;245.15;16.77;;;;;;;;;;4983537;28;20436;-56
2023/05/11 04:50:48;;;;;;;212.43;14.07;;;;;;;;;;4982028;28;20057;-56
2023/05/11 04:53:14;;;;;;;218.07;11.90;;;;;;;;;;4983434;28;20807;-57
2023/05/11 04:55:39;;;;;;;251.77;13.75;;;;;;;;;;4968474;28;20816;-56
2023/05/11 04:58:04;;;;;;;171.88;13.52;;;;;;;;;;4982733;28;20056;-55
2023/05/11 05:00:30;;;;;;;228.68;15.57;;;;;;;;;;4983377;28;20091;-57
2023/05/11 05:02:55;;;;;;;194.93;12.93;;;;;;;;;;4983881;28;20098;-57
2023/05/11 05:05:20;;;;;;;236.00;13.20;;;;;;;;;;4983177;28;20269;-56
2023/05/11 05:07:45;;;;;;;236.85;13.25;;;;;;;;;;4983540;28;20276;-56
2023/05/11 05:10:11;;;;;;;215.10;13.77;;;;;;;;;;4982926;28;20018;-56
2023/05/11 05:12:37;;;;;;;231.32;14.75;;;;;;;;;;4982976;28;20910;-56
2023/05/11 05:15:02;;;;;;;237.57;13.77;;;;;;;;;;4981042;28;20079;-56
2023/05/11 05:17:28;;;;;;;269.05;14.40;;;;;;;;;;4982549;28;20038;-55
2023/05/11 05:19:53;;;;;;;198.48;15.10;;;;;;;;;;4984114;28;20028;-57
2023/05/11 05:22:18;;;;;;;244.10;16.08;;;;;;;;;;4982132;28;20130;-59
2023/05/11 05:24:43;;;;;;;226.13;17.93;;;;;;;;;;4985508;28;20030;-58
2023/05/11 05:27:09;;;;;;;242.13;14.27;;;;;;;;;;4983921;28;20282;-58
2023/05/11 05:29:34;;;;;;;190.90;12.48;;;;;;;;;;4983249;28;20258;-57
2023/05/11 05:31:59;;;;;;;205.40;12.32;;;;;;;;;;4983371;28;20042;-56
2023/05/11 05:34:25;;;;;;;261.17;13.93;;;;;;;;;;4983699;28;20399;-57
2023/05/11 05:36:50;;;;;;;216.52;13.38;;;;;;;;;;4983326;28;20312;-57
2023/05/11 05:39:15;;;;;;;210.82;10.13;;;;;;;;;;4983017;28;20033;-56
2023/05/11 05:41:41;;;;;;;250.75;11.63;;;;;;;;;;4984403;28;20072;-58
2023/05/11 05:44:06;;;;;;;232.05;11.43;;;;;;;;;;4986421;28;20423;-58
2023/05/11 05:46:32;;;;;;;179.73;8.93;;;;;;;;;;4986149;28;20706;-56
2023/05/11 05:48:57;;;;;;;189.95;9.25;;;;;;;;;;4984531;28;20300;-57
2023/05/11 05:51:22;;;;;;;227.18;10.40;;;;;;;;;;4986252;28;20038;-56
2023/05/11 05:53:48;;;;;;;348.17;13.90;;;;;;;;;;4985996;28;20507;-56
2023/05/11 05:56:13;;;;;;;192.13;9.33;;;;;;;;;;4986577;28;20408;-58
2023/05/11 05:58:38;;;;;;;144.07;8.48;;;;;;;;;;4985581;28;20299;-58
2023/05/11 06:01:04;;;;;;;251.20;10.60;;;;;;;;;;4984913;28;20538;-56
2023/05/11 06:03:29;;;;;;;196.63;9.30;;;;;;;;;;4987374;28;20026;-58
2023/05/11 06:05:54;;;;;;;168.52;8.45;;;;;;;;;;4985460;28;20107;-57
2023/05/11 06:08:19;;;;;;;226.70;9.05;;;;;;;;;;4986705;28;20029;-59
2023/05/11 06:10:45;;;;;;;200.37;8.63;;;;;;;;;;4983844;28;20038;-57
2023/05/11 06:13:10;;;;;;;228.85;9.80;;;;;;;;;;4983917;28;20260;-56
2023/05/11 06:15:35;;;;;;;203.38;8.80;;;;;;;;;;4984908;28;20193;-58
2023/05/11 06:18:01;;;;;;;236.90;9.98;;;;;;;;;;4985910;28;20030;-57
2023/05/11 06:20:26;;;;;;;331.30;12.63;;;;;;;;;;4984097;28;20038;-56
2023/05/11 06:22:51;;;;;;;201.80;9.30;;;;;;;;;;4954504;28;20338;-55
2023/05/11 06:25:16;;;;;;;221.68;9.85;;;;;;;;;;4983236;28;20121;-58
2023/05/11 06:27:42;;;;;;;233.37;10.13;;;;;;;;;;4985883;28;20038;-58
2023/05/11 06:30:07;;;;;;;170.02;8.45;;;;;;;;;;4986815;28;20286;-56
2023/05/11 06:32:33;;;;;;;228.18;10.15;;;;;;;;;;4985847;28;20482;-58
2023/05/11 06:34:58;;;;;;;238.02;10.50;;;;;;;;;;4984267;28;20605;-57
2023/05/11 06:37:23;;;;;;;249.57;10.95;;;;;;;;;;4986298;28;20042;-57
2023/05/11 06:39:49;;;;;;;269.00;11.38;;;;;;;;;;4984861;28;20041;-57
2023/05/11 06:42:14;;;;;;;245.70;10.50;;;;;;;;;;4984389;28;20091;-56
2023/05/11 06:44:40;;;;;;;172.07;9.15;;;;;;;;;;4983873;28;20061;-57
2023/05/11 06:47:06;;;;;;;246.02;11.32;;;;;;;;;;4984100;28;20161;-56
2023/05/11 06:49:31;;;;;;;243.23;11.02;;;;;;;;;;4985450;28;20031;-56
2023/05/11 06:51:56;;;;;;;192.15;9.63;;;;;;;;;;4984644;28;20732;-56
2023/05/11 06:54:22;;;;;;;217.80;10.63;;;;;;;;;;4984047;28;20142;-58
2023/05/11 06:56:47;;;;;;;211.02;10.45;;;;;;;;;;4983971;28;20114;-58
2023/05/11 06:59:12;;;;;;;234.00;10.95;;;;;;;;;;4984778;28;20575;-58
2023/05/11 07:01:38;;;;;;;208.82;11.15;;;;;;;;;;4986263;28;20041;-58
2023/05/11 07:04:03;;;;;;;257.08;12.70;;;;;;;;;;4983493;28;20108;-56
2023/05/11 07:06:28;;;;;;;219.20;11.27;;;;;;;;;;4975433;28;20061;-59
2023/05/11 07:08:54;;;;;;;214.10;12.33;;;;;;;;;;4983228;28;20022;-57
2023/05/11 07:11:19;;;;;;;230.13;11.85;;;;;;;;;;4985957;28;20331;-58
2023/05/11 07:13:44;;;;;;;295.55;15.13;;;;;;;;;;4995095;28;20041;-57
2023/05/11 07:16:09;;;;;;;211.95;12.52;;;;;;;;;;4989570;28;20177;-59
2023/05/11 07:18:35;;;;;;;245.33;14.47;;;;;;;;;;4990855;28;20022;-58
2023/05/11 07:21:00;;;;;;;226.63;15.17;;;;;;;;;;4991458;28;20269;-55
2023/05/11 07:23:25;;;;;;;186.20;17.20;;;;;;;;;;4993875;28;20253;-59
2023/05/11 07:25:52;;;;;;;259.97;19.17;;;;;;;;;;4991104;28;20469;-58
2023/05/11 07:28:17;;;;;;;212.98;17.92;;;;;;;;;;4994021;28;20281;-56
2023/05/11 07:30:42;;;;;;;188.32;17.77;;;;;;;;;;4993649;28;20084;-59
2023/05/11 07:33:08;;;;;;;258.02;21.60;;;;;;;;;;4992079;28;20025;-59
2023/05/11 07:35:33;;;;;;;191.77;19.08;;;;;;;;;;4984398;28;20032;-60
2023/05/11 07:37:58;;;;;;;274.95;22.08;;;;;;;;;;4985267;28;20111;-59
2023/05/11 07:40:23;;;;;;;252.03;23.33;;;;;;;;;;4984327;28;20060;-59
2023/05/11 07:42:49;;;;;;;224.00;12.93;;;;;;;;;;4985035;28;20464;-59
2023/05/11 07:45:14;;;;;;;267.50;14.02;;;;;;;;;;4980683;28;20014;-59
2023/05/11 07:47:40;;;;;;;258.90;11.77;;;;;;;;;;4985086;28;20463;-57
2023/05/11 07:50:05;;;;;;;229.23;12.10;;;;;;;;;;4983742;28;20049;-57
2023/05/11 07:52:31;;;;;;;248.55;13.52;;;;;;;;;;4983687;28;20482;-59
2023/05/11 07:54:56;;;;;;;206.23;11.30;;;;;;;;;;4982606;28;20034;-58
2023/05/11 07:57:21;;;;;;;239.80;12.40;;;;;;;;;;4984769;28;20415;-58
2023/05/11 07:59:47;;;;;;;238.77;16.43;;;;;;;;;;4983816;28;20589;-56
2023/05/11 08:02:12;;;;;;;204.25;11.90;;;;;;;;;;4970981;28;21028;-56
2023/05/11 08:04:38;;;;;;;217.98;12.93;;;;;;;;;;4981249;28;20102;-57
2023/05/11 08:07:03;;;;;;;205.55;12.55;;;;;;;;;;4982903;28;20045;-56
2023/05/11 08:09:29;;;;;;;210.75;12.40;;;;;;;;;;4983325;28;20091;-56
2023/05/11 08:11:55;;;;;;;260.02;13.50;;;;;;;;;;4984619;28;20767;-56
2023/05/11 08:14:21;;;;;;;204.75;9.18;;;;;;;;;;4984148;28;21028;-58
2023/05/11 08:16:47;;;;;;;221.70;9.85;;;;;;;;;;4982633;28;20054;-56
2023/05/11 08:19:12;;;;;;;209.38;9.63;;;;;;;;;;4983123;28;20030;-57
2023/05/11 08:21:37;;;;;;;200.00;9.77;;;;;;;;;;4984841;28;20477;-56
2023/05/11 08:24:02;;;;;;;273.20;11.17;;;;;;;;;;4981632;28;20258;-59
2023/05/11 08:26:28;;;;;;;194.43;9.68;;;;;;;;;;4983607;28;20277;-57
2023/05/11 08:28:53;;;;;;;282.23;14.02;;;;;;;;;;4984575;28;20079;-58
2023/05/11 08:31:18;;;;;;;324.23;15.00;;;;;;;;;;4983674;28;20077;-57
2023/05/11 08:33:43;;;;;;;304.60;13.43;;;;;;;;;;4982461;28;20408;-57
2023/05/11 08:36:12;;;;;;;286.92;14.68;;;;;;;;;;4981028;28;20639;-57
2023/05/11 08:38:37;;;;;;;267.45;13.07;;;;;;;;;;4982504;28;20487;-56
2023/05/11 08:41:03;;;;;;;223.35;14.23;;;;;;;;;;4982095;28;20440;-56
2023/05/11 08:43:29;;;;;;;380.52;20.70;;;;;;;;;;4982590;28;20496;-57
2023/05/11 08:45:56;;;;;;;350.38;17.63;;;;;;;;;;4979820;28;20041;-56
2023/05/11 08:48:21;;;;;;;264.48;14.27;;;;;;;;;;4983640;28;20658;-58
2023/05/11 08:50:47;;;;;;;265.60;12.70;;;;;;;;;;4983052;28;20030;-57
2023/05/11 08:53:12;;;;;;;247.00;12.63;;;;;;;;;;4983199;28;20031;-58
2023/05/11 08:55:39;;;;;;;257.10;13.40;;;;;;;;;;4982092;28;20053;-56
2023/05/11 08:58:05;;;;;;;273.92;13.65;;;;;;;;;;4982403;28;20041;-59
2023/05/11 09:00:31;;;;;;;229.57;11.88;;;;;;;;;;4983418;28;20037;-57
2023/05/11 09:02:57;;;;;;;243.70;12.68;;;;;;;;;;4981348;28;20687;-57
2023/05/11 09:05:22;;;;;;;212.43;11.52;;;;;;;;;;4981796;28;20742;-56
2023/05/11 09:07:51;;;;;;;243.68;12.93;;;;;;;;;;4983976;28;20026;-58
2023/05/11 09:10:16;;;;;;;294.30;13.32;;;;;;;;;;4982888;28;20030;-56
2023/05/11 09:12:42;;;;;;;227.13;11.75;;;;;;;;;;4983505;28;20038;-57
2023/05/11 09:15:07;;;;;;;188.23;11.90;;;;;;;;;;4982609;28;20057;-57
2023/05/11 09:17:32;;;;;;;244.57;11.13;;;;;;;;;;4985037;28;20273;-56
2023/05/11 09:19:59;;;;;;;224.93;10.53;;;;;;;;;;4987681;28;20042;-57
2023/05/11 09:22:24;;;;;;;272.05;12.80;;;;;;;;;;4985731;28;20041;-57
2023/05/11 09:24:50;;;;;;;345.15;19.70;;;;;;;;;;4984150;28;20029;-57
2023/05/11 09:27:15;;;;;;;274.75;13.90;;;;;;;;;;4983845;28;20116;-55
2023/05/11 09:29:40;;;;;;;278.90;14.20;;;;;;;;;;4987158;28;20026;-59
2023/05/11 09:32:06;;;;;;;185.17;13.10;;;;;;;;;;4986207;28;20265;-56
2023/05/11 09:34:31;;;;;;;286.08;14.98;;;;;;;;;;4986545;28;20801;-54
2023/05/11 09:36:56;;;;;;;308.38;16.10;;;;;;;;;;4987186;28;20645;-56
2023/05/11 09:39:29;;;;;;;263.63;13.93;;;;;;;;;;4986903;28;20034;-55
2023/05/11 09:42:14;;;;;;;314.73;15.70;;;;;;;;;;4984589;28;20125;-56
2023/05/11 09:44:40;;;;;;;234.30;12.88;;;;;;;;;;4984890;28;20647;-57
2023/05/11 09:47:13;;;;;;;261.27;11.48;;;;;;;;;;4984906;28;20100;-57
2023/05/11 09:49:45;;;;;;;280.00;13.18;;;;;;;;;;4986550;28;20103;-57
2023/05/11 09:52:11;;;;;;;294.85;13.10;;;;;;;;;;4985475;28;20182;-57
2023/05/11 09:54:41;;;;;;;242.23;11.10;;;;;;;;;;4983367;28;20114;-57
2023/05/11 09:57:08;;;;;;;247.10;11.43;;;;;;;;;;4987112;28;20542;-56
2023/05/11 09:59:37;;;;;;;233.90;11.82;;;;;;;;;;4984477;28;20113;-55
2023/05/11 10:02:18;;;;;;;229.88;11.60;;;;;;;;;;4985140;28;20076;-56
2023/05/11 10:04:43;;;;;;;240.82;12.98;;;;;;;;;;4985656;28;20027;-55
2023/05/11 10:07:08;;;;;;;210.32;10.45;;;;;;;;;;4987473;28;20702;-56
2023/05/11 10:09:34;;;;;;;250.50;10.20;;;;;;;;;;4986779;28;20022;-56
2023/05/11 10:12:00;;;;;;;237.82;11.40;;;;;;;;;;4985994;28;20052;-58
2023/05/11 10:14:26;;;;;;;234.10;10.70;;;;;;;;;;4983722;28;20053;-56
2023/05/11 10:16:52;;;;;;;175.25;9.02;;;;;;;;;;4985930;28;20614;-57
2023/05/11 10:19:18;;;;;;;190.60;9.20;;;;;;;;;;4984017;28;20125;-55
2023/05/11 10:21:44;;;;;;;274.92;12.02;;;;;;;;;;4985169;28;20045;-57
2023/05/11 10:24:09;;;;;;;248.52;11.15;;;;;;;;;;4985573;28;20022;-55
2023/05/11 10:26:35;;;;;;;182.63;8.48;;;;;;;;;;4985557;28;20034;-58
2023/05/11 10:29:00;;;;;;;234.70;10.02;;;;;;;;;;4985507;28;20022;-57
2023/05/11 10:31:26;;;;;;;184.40;8.82;;;;;;;;;;4985429;28;20045;-57
2023/05/11 10:33:52;;;;;;;318.15;11.55;;;;;;;;;;4984666;28;20057;-58
2023/05/11 10:36:17;;;;;;;224.68;10.38;;;;;;;;;;4986493;28;20459;-58
2023/05/11 10:38:43;;;;;;;157.00;8.07;;;;;;;;;;4984893;28;20103;-55
2023/05/11 10:41:21;;;;;;;250.07;10.85;;;;;;;;;;4984561;28;20031;-58
2023/05/11 10:44:05;;;;;;;268.13;12.23;;;;;;;;;;4984462;28;20693;-57
2023/05/11 10:46:49;;;;;;;195.90;9.85;;;;;;;;;;4985517;28;20034;-56
2023/05/11 10:49:32;;;;;;;225.60;10.27;;;;;;;;;;4986631;28;21005;-57
2023/05/11 10:52:17;;;;;;;221.70;10.82;;;;;;;;;;4983976;28;20559;-56
2023/05/11 10:54:45;;;;;;;192.75;9.52;;;;;;;;;;4983858;28;20705;-57
2023/05/11 10:57:27;;;;;;;216.40;9.73;;;;;;;;;;4986549;28;20034;-58
2023/05/11 10:59:52;;;;;;;187.20;9.30;;;;;;;;;;4986765;28;20885;-54
2023/05/11 11:02:18;;;;;;;190.05;9.93;;;;;;;;;;4987484;28;20859;-55
2023/05/11 11:04:44;;;;;;;266.88;11.48;;;;;;;;;;4984609;28;20109;-55
2023/05/11 11:07:10;;;;;;;191.63;9.10;;;;;;;;;;4983532;28;20039;-56
2023/05/11 11:09:48;;;;;;;217.50;9.75;;;;;;;;;;4986289;28;20048;-55
2023/05/11 11:12:14;;;;;;;221.55;10.20;;;;;;;;;;4983978;28;20043;-58
2023/05/11 11:15:12;;;;;;;204.70;10.65;;;;;;;;;;4983246;28;20464;-57
2023/05/11 11:17:37;;;;;;;220.85;10.65;;;;;;;;;;4940102;28;20037;-57
2023/05/11 11:20:05;;;;;;;171.60;8.48;;;;;;;;;;4985486;28;20022;-56
2023/05/11 11:22:34;;;;;;;199.32;10.55;;;;;;;;;;4986091;28;20103;-57
2023/05/11 11:25:06;;;;;;;232.82;11.15;;;;;;;;;;4985023;28;20026;-57
2023/05/11 11:27:43;;;;;;;245.65;11.63;;;;;;;;;;4986552;28;20038;-57
2023/05/11 11:30:16;;;;;;;237.02;11.45;;;;;;;;;;4985464;28;20541;-54
2023/05/11 11:32:41;;;;;;;179.80;10.35;;;;;;;;;;4985098;28;20129;-54
2023/05/11 11:35:26;;;;;;;179.93;9.83;;;;;;;;;;4984913;28;20618;-54
2023/05/11 11:38:01;;;;;;;208.23;10.77;;;;;;;;;;4985174;28;20306;-56
2023/05/11 11:40:43;;;;;;;229.73;11.23;;;;;;;;;;4984768;28;20069;-57
2023/05/11 11:43:17;;;;;;;210.37;11.83;;;;;;;;;;4983398;28;20406;-56
2023/05/11 11:45:55;;;;;;;217.82;10.60;;;;;;;;;;4983019;28;20026;-56
2023/05/11 11:48:22;;;;;;;248.88;12.38;;;;;;;;;;4965280;28;20034;-57
2023/05/11 11:50:48;;;;;;;249.25;14.85;;;;;;;;;;4983504;28;20439;-55
2023/05/11 11:53:32;;;;;;;207.57;11.18;;;;;;;;;;4984528;28;20507;-56
2023/05/11 11:55:57;;;;;;;190.32;11.65;;;;;;;;;;4983048;28;20023;-57
2023/05/11 11:58:40;;;;;;;203.73;11.37;;;;;;;;;;4983695;28;20018;-58
2023/05/11 12:01:10;;;;;;;232.70;12.45;;;;;;;;;;4983382;28;20281;-58
2023/05/11 12:03:36;;;;;;;219.50;12.55;;;;;;;;;;4983816;28;20034;-54
2023/05/11 12:06:03;;;;;;;218.23;13.07;;;;;;;;;;4981944;28;20026;-56
2023/05/11 12:08:30;;;;;;;257.55;13.45;;;;;;;;;;4968701;28;20117;-56
2023/05/11 12:10:56;;;;;;;239.02;13.35;;;;;;;;;;4982983;28;20037;-55
2023/05/11 12:13:21;;;;;;;228.00;12.88;;;;;;;;;;4982720;28;20032;-57
2023/05/11 12:15:46;;;;;;;249.00;12.73;;;;;;;;;;4982942;28;20030;-56
2023/05/11 12:18:21;;;;;;;267.83;13.50;;;;;;;;;;4981621;28;20265;-55
2023/05/11 12:20:47;;;;;;;214.13;12.73;;;;;;;;;;4982369;28;20352;-57
2023/05/11 12:23:13;;;;;;;228.85;12.98;;;;;;;;;;4984015;28;20031;-55
2023/05/11 12:25:38;;;;;;;193.00;12.52;;;;;;;;;;4983460;28;20038;-56
2023/05/11 12:28:03;;;;;;;229.95;13.40;;;;;;;;;;4983334;28;20033;-55
2023/05/11 12:30:30;;;;;;;227.17;13.67;;;;;;;;;;4982451;28;20026;-55
2023/05/11 12:32:55;;;;;;;169.63;12.85;;;;;;;;;;4982861;28;20253;-57
2023/05/11 12:35:23;;;;;;;212.85;14.90;;;;;;;;;;4980976;28;20018;-56
2023/05/11 12:37:48;;;;;;;248.00;16.45;;;;;;;;;;4983415;28;20039;-54
2023/05/11 12:40:13;;;;;;;214.57;15.75;;;;;;;;;;4982786;28;20090;-55
2023/05/11 12:42:48;;;;;;;207.53;16.37;;;;;;;;;;4983237;28;20030;-55
2023/05/11 12:45:13;;;;;;;214.10;16.23;;;;;;;;;;4982950;28;20336;-55
2023/05/11 12:47:39;;;;;;;262.20;20.58;;;;;;;;;;4985904;28;20041;-56
2023/05/11 12:50:05;;;;;;;237.75;19.20;;;;;;;;;;4980633;28;20709;-55
2023/05/11 12:52:30;;;;;;;210.75;20.75;;;;;;;;;;4983611;28;20030;-59
2023/05/11 12:54:58;;;;;;;270.95;22.08;;;;;;;;;;4982084;28;20522;-57
2023/05/11 12:57:24;;;;;;;245.45;22.50;;;;;;;;;;4982469;28;20063;-57
2023/05/11 13:00:04;;;;;;;206.80;20.00;;;;;;;;;;4981707;28;20030;-58
2023/05/11 13:02:30;;;;;;;185.60;18.80;;;;;;;;;;4982983;28;20075;-57
2023/05/11 13:04:55;;;;;;;191.07;20.75;;;;;;;;;;4981370;28;20097;-57
2023/05/11 13:07:25;;;;;;;237.60;12.33;;;;;;;;;;4983205;28;20416;-58
2023/05/11 13:09:57;;;;;;;233.80;16.23;;;;;;;;;;4983501;28;20805;-56
2023/05/11 13:12:23;;;;;;;251.75;18.77;;;;;;;;;;4982592;28;20047;-56
2023/05/11 13:14:50;;;;;;;215.18;16.95;;;;;;;;;;4981935;28;20030;-56
2023/05/11 13:17:29;;;;;;;200.38;16.77;;;;;;;;;;4982756;28;20035;-57
2023/05/11 13:19:54;;;;;;;196.00;15.07;;;;;;;;;;4980740;28;20026;-58
2023/05/11 13:22:19;;;;;;;226.43;15.90;;;;;;;;;;4983932;28;20065;-57
2023/05/11 13:24:44;;;;;;;240.50;15.83;;;;;;;;;;4981922;28;20029;-56
2023/05/11 13:27:10;;;;;;;225.97;14.03;;;;;;;;;;4982695;28;20336;-58
2023/05/11 13:29:35;;;;;;;220.50;16.80;;;;;;;;;;4981242;28;20330;-56
2023/05/11 13:32:00;;;;;;;182.32;14.60;;;;;;;;;;4984265;28;20637;-57
2023/05/11 13:34:25;;;;;;;182.40;15.27;;;;;;;;;;4981759;28;20054;-56
2023/05/11 13:36:51;;;;;;;265.33;19.08;;;;;;;;;;4982871;28;20282;-56
2023/05/11 13:39:16;;;;;;;193.23;17.25;;;;;;;;;;4985264;28;20097;-55
2023/05/11 13:41:41;;;;;;;190.45;15.25;;;;;;;;;;4975417;28;20030;-57
2023/05/11 13:44:07;;;;;;;242.13;16.40;;;;;;;;;;4982421;28;20400;-59
2023/05/11 13:46:32;;;;;;;207.13;15.57;;;;;;;;;;4982362;28;20053;-58
2023/05/11 13:48:59;;;;;;;165.10;12.70;;;;;;;;;;4983089;28;20021;-58
2023/05/11 13:51:24;;;;;;;157.07;13.43;;;;;;;;;;4981059;28;20830;-57
2023/05/11 13:53:49;;;;;;;294.57;18.87;;;;;;;;;;4982762;28;20026;-56
2023/05/11 13:56:15;;;;;;;201.93;15.53;;;;;;;;;;4983768;28;20862;-56
2023/05/11 13:58:40;;;;;;;213.13;15.00;;;;;;;;;;4982050;28;20241;-58
2023/05/11 14:01:06;;;;;;;215.20;16.73;;;;;;;;;;4983859;28;20042;-57
2023/05/11 14:03:32;;;;;;;245.67;16.80;;;;;;;;;;4984506;28;20366;-56
2023/05/11 14:05:57;;;;;;;190.82;17.50;;;;;;;;;;4984914;28;20037;-56